createdAt,value
2017-11-09T00:04:41.410Z,1014.76
2017-11-09T00:09:38.090Z,1014.75
2017-11-09T00:14:34.668Z,1014.74
2017-11-09T00:19:31.351Z,1014.75
2017-11-09T00:24:27.045Z,1014.82
2017-11-09T00:29:23.357Z,1014.72
2017-11-09T00:34:18.865Z,1014.83
2017-11-09T00:39:15.873Z,1014.84
2017-11-09T00:44:11.513Z,1014.80
2017-11-09T00:49:07.378Z,1014.86
2017-11-09T00:54:03.908Z,1014.90
2017-11-09T00:59:00.572Z,1014.89
2017-11-09T01:03:57.027Z,1014.81
2017-11-09T01:08:55.229Z,1014.90
2017-11-09T01:13:50.007Z,1014.98
2017-11-09T01:18:45.728Z,1014.92
2017-11-09T01:23:41.605Z,1014.91
2017-11-09T01:28:39.338Z,1014.98
2017-11-09T01:33:34.635Z,1015.04
2017-11-09T01:38:30.510Z,1015.06
2017-11-09T01:43:27.239Z,1014.98
2017-11-09T01:48:23.489Z,1015.10
2017-11-09T01:53:19.465Z,1015.12
2017-11-09T01:58:14.909Z,1015.23
2017-11-09T02:03:11.741Z,1015.21
2017-11-09T02:08:07.544Z,1015.17
2017-11-09T02:13:03.379Z,1015.11
2017-11-09T02:17:59.429Z,1015.06
2017-11-09T02:22:55.416Z,1015.21
2017-11-09T02:27:52.125Z,1015.27
2017-11-09T02:32:48.650Z,1015.33
2017-11-09T02:37:44.276Z,1015.29
2017-11-09T02:42:39.877Z,1015.30
2017-11-09T02:47:35.546Z,1015.28
2017-11-09T02:52:33.341Z,1015.24
2017-11-09T02:57:29.797Z,1015.30
2017-11-09T03:02:26.943Z,1015.32
2017-11-09T03:07:22.346Z,1015.28
2017-11-09T03:12:19.105Z,1015.28
2017-11-09T03:17:16.435Z,1015.25
2017-11-09T03:22:12.649Z,1015.21
2017-11-09T03:27:07.972Z,1015.19
2017-11-09T03:32:04.871Z,1015.27
2017-11-09T03:37:02.019Z,1015.28
2017-11-09T03:41:57.848Z,1015.19
2017-11-09T03:46:53.634Z,1015.27
2017-11-09T03:51:51.526Z,1015.26
2017-11-09T03:56:46.315Z,1015.27
2017-11-09T04:01:42.806Z,1015.23
2017-11-09T04:06:38.916Z,1015.15
2017-11-09T04:11:34.382Z,1015.22
2017-11-09T04:16:30.246Z,1015.22
2017-11-09T04:21:25.726Z,1015.22
2017-11-09T04:26:21.779Z,1015.13
2017-11-09T04:31:18.519Z,1015.16
2017-11-09T04:36:14.048Z,1015.18
2017-11-09T04:41:10.420Z,1015.13
2017-11-09T04:46:06.213Z,1015.10
2017-11-09T04:51:01.771Z,1015.13
2017-11-09T04:55:58.496Z,1015.17
2017-11-09T05:00:54.047Z,1015.21
2017-11-09T05:05:49.768Z,1015.20
2017-11-09T05:10:45.510Z,1015.23
2017-11-09T05:15:42.277Z,1015.24
2017-11-09T05:25:38.160Z,1015.26
2017-11-09T05:30:33.561Z,1015.23
2017-11-09T05:35:29.392Z,1015.25
2017-11-09T05:40:26.296Z,1015.29
2017-11-09T05:45:21.703Z,1015.35
2017-11-09T05:50:19.681Z,1015.39
2017-11-09T05:55:16.033Z,1015.46
2017-11-09T06:00:11.332Z,1015.44
2017-11-09T06:05:06.933Z,1015.48
2017-11-09T06:10:03.429Z,1015.45
2017-11-09T06:14:59.085Z,1015.49
2017-11-09T06:19:55.955Z,1015.46
2017-11-09T06:24:51.409Z,1015.50
2017-11-09T06:29:48.073Z,1015.54
2017-11-09T06:34:45.290Z,1015.45
2017-11-09T06:39:41.905Z,1015.54
2017-11-09T06:44:37.419Z,1015.67
2017-11-09T06:49:33.163Z,1015.69
2017-11-09T06:54:29.430Z,1015.66
2017-11-09T06:59:25.576Z,1015.70
2017-11-09T07:04:21.645Z,1015.70
2017-11-09T07:09:17.307Z,1015.73
2017-11-09T07:14:14.073Z,1015.80
2017-11-09T07:19:10.556Z,1015.74
2017-11-09T07:24:06.122Z,1015.72
2017-11-09T07:29:01.848Z,1015.81
2017-11-09T07:33:58.627Z,1015.89
2017-11-09T07:38:55.363Z,1015.87
2017-11-09T07:43:52.882Z,1015.86
2017-11-09T07:48:48.122Z,1015.88
2017-11-09T07:53:44.841Z,1015.87
2017-11-09T07:58:42.209Z,1015.95
2017-11-09T08:03:39.656Z,1015.90
2017-11-09T08:08:35.894Z,1016.05
2017-11-09T08:18:32.262Z,1016.08
2017-11-09T08:23:27.485Z,1016.18
2017-11-09T08:28:25.528Z,1016.23
2017-11-09T08:33:21.975Z,1016.14
2017-11-09T08:38:17.978Z,1016.13
2017-11-09T08:43:14.847Z,1016.14
2017-11-09T08:48:10.392Z,1016.16
2017-11-09T08:53:07.233Z,1016.12
2017-11-09T08:58:03.720Z,1016.09
2017-11-09T09:03:01.420Z,1016.04
2017-11-09T09:07:58.091Z,1016.14
2017-11-09T09:12:55.842Z,1016.18
2017-11-09T09:17:53.326Z,1016.15
2017-11-09T09:22:49.255Z,1016.09
2017-11-09T09:27:47.670Z,1015.99
2017-11-09T09:32:44.999Z,1016.09
2017-11-09T09:37:40.400Z,1016.01
2017-11-09T09:42:36.567Z,1016.08
2017-11-09T09:47:33.333Z,1016.07
2017-11-09T09:52:31.051Z,1016.11
2017-11-09T09:57:27.753Z,1016.10
2017-11-09T10:02:24.389Z,1016.09
2017-11-09T10:07:20.792Z,1016.00
2017-11-09T10:12:16.870Z,1016.01
2017-11-09T10:17:13.354Z,1015.97
2017-11-09T10:22:11.314Z,1016.02
2017-11-09T10:27:10.463Z,1016.04
2017-11-09T10:37:08.889Z,1015.99
2017-11-09T10:42:06.538Z,1016.00
2017-11-09T10:47:02.375Z,1015.81
2017-11-09T10:51:59.152Z,1015.79
2017-11-09T10:56:55.702Z,1015.83
2017-11-09T11:01:51.469Z,1015.71
2017-11-09T11:06:48.285Z,1015.64
2017-11-09T11:11:44.448Z,1015.71
2017-11-09T11:16:41.902Z,1015.69
2017-11-09T11:21:38.064Z,1015.76
2017-11-09T11:26:34.788Z,1015.50
2017-11-09T11:31:33.540Z,1015.70
2017-11-09T11:36:28.547Z,1015.62
2017-11-09T11:41:31.253Z,1015.62
2017-11-09T11:46:30.268Z,1015.55
2017-11-09T11:51:27.306Z,1015.73
2017-11-09T11:56:23.725Z,1015.60
2017-11-09T12:01:21.152Z,1015.71
2017-11-09T12:06:16.788Z,1015.68
2017-11-09T12:11:13.657Z,1015.67
2017-11-09T12:16:10.112Z,1015.63
2017-11-09T12:21:07.689Z,1015.49
2017-11-09T12:26:05.825Z,1015.60
2017-11-09T12:31:02.067Z,1015.51
2017-11-09T12:35:58.666Z,1015.66
2017-11-09T12:40:56.709Z,1015.57
2017-11-09T12:45:55.022Z,1015.45
2017-11-09T12:50:50.201Z,1015.40
2017-11-09T12:55:45.822Z,1015.30
2017-11-09T13:00:42.676Z,1015.33
2017-11-09T13:05:39.229Z,1015.45
2017-11-09T13:10:39.532Z,1015.28
2017-11-09T13:15:34.301Z,1015.31
2017-11-09T13:20:31.120Z,1015.46
2017-11-09T13:25:27.720Z,1015.51
2017-11-09T13:30:24.337Z,1015.49
2017-11-09T13:35:20.935Z,1015.41
2017-11-09T13:40:17.240Z,1015.30
2017-11-09T13:45:12.692Z,1015.14
2017-11-09T13:50:09.280Z,1015.36
2017-11-09T13:55:05.904Z,1015.50
2017-11-09T14:00:02.562Z,1015.61
2017-11-09T14:04:58.147Z,1015.63
2017-11-09T14:09:55.465Z,1015.35
2017-11-09T14:14:51.956Z,1015.29
2017-11-09T14:19:48.364Z,1015.35
2017-11-09T14:24:44.696Z,1015.31
2017-11-09T14:29:40.186Z,1015.38
2017-11-09T14:34:36.587Z,1015.43
2017-11-09T14:39:32.462Z,1015.34
2017-11-09T14:44:28.908Z,1015.24
2017-11-09T14:49:25.805Z,1015.28
2017-11-09T14:54:21.357Z,1015.22
2017-11-09T14:59:19.036Z,1015.08
2017-11-09T15:04:14.843Z,1015.15
2017-11-09T15:09:11.604Z,1015.07
2017-11-09T15:14:07.145Z,1015.04
2017-11-09T15:19:03.010Z,1015.07
2017-11-09T15:23:59.542Z,1014.96
2017-11-09T15:28:56.000Z,1015.00
2017-11-09T15:33:51.533Z,1014.90
2017-11-09T15:38:48.292Z,1014.96
2017-11-09T15:43:43.823Z,1014.99
2017-11-09T15:48:41.771Z,1014.84
2017-11-09T15:53:38.015Z,1014.73
2017-11-09T15:58:34.221Z,1014.55
2017-11-09T16:03:31.841Z,1014.65
2017-11-09T16:08:26.979Z,1014.51
2017-11-09T16:13:24.382Z,1014.53
2017-11-09T16:18:20.864Z,1014.53
2017-11-09T16:23:16.426Z,1014.50
2017-11-09T16:28:12.255Z,1014.62
2017-11-09T16:33:08.539Z,1014.67
2017-11-09T16:38:03.792Z,1014.74
2017-11-09T16:42:59.514Z,1014.64
2017-11-09T16:47:55.682Z,1014.74
2017-11-09T16:52:52.463Z,1014.66
2017-11-09T16:57:48.065Z,1014.69
2017-11-09T17:02:44.867Z,1014.86
2017-11-09T17:07:40.190Z,1014.83
2017-11-09T17:12:36.427Z,1014.89
2017-11-09T17:17:32.533Z,1014.57
2017-11-09T17:22:28.457Z,1014.66
2017-11-09T17:27:24.053Z,1014.61
2017-11-09T17:32:21.009Z,1014.75
2017-11-09T17:37:17.482Z,1014.56
2017-11-09T17:42:13.012Z,1014.59
2017-11-09T17:47:08.979Z,1014.78
2017-11-09T17:52:06.185Z,1014.66
2017-11-09T17:57:01.683Z,1014.66
2017-11-09T18:01:57.576Z,1014.66
2017-11-09T18:06:53.314Z,1014.67
2017-11-09T18:11:48.747Z,1014.97
2017-11-09T18:16:44.540Z,1015.01
2017-11-09T18:21:41.591Z,1015.04
2017-11-09T18:26:37.134Z,1014.98
2017-11-09T18:31:32.845Z,1015.02
2017-11-09T18:36:28.576Z,1014.96
2017-11-09T18:41:25.538Z,1014.76
2017-11-09T18:46:22.018Z,1014.86
2017-11-09T18:51:18.317Z,1014.81
2017-11-09T18:56:13.983Z,1014.78
2017-11-09T19:01:10.590Z,1014.81
2017-11-09T19:06:06.399Z,1014.71
2017-11-09T19:11:02.536Z,1014.63
2017-11-09T19:15:58.273Z,1014.49
2017-11-09T19:20:56.468Z,1014.43
2017-11-09T19:25:52.617Z,1014.44
2017-11-09T19:30:49.996Z,1014.59
2017-11-09T19:35:46.322Z,1014.53
2017-11-09T19:40:43.223Z,1014.53
2017-11-09T19:45:39.805Z,1014.54
2017-11-09T19:50:34.969Z,1014.56
2017-11-09T19:55:31.573Z,1014.64
2017-11-09T20:00:27.469Z,1014.65
2017-11-09T20:05:25.433Z,1014.45
2017-11-09T20:10:21.560Z,1014.34
2017-11-09T20:15:20.087Z,1014.29
2017-11-09T20:20:15.045Z,1014.24
2017-11-09T20:25:11.917Z,1014.25
2017-11-09T20:30:09.376Z,1014.33
2017-11-09T20:35:06.561Z,1014.36
2017-11-09T20:40:04.465Z,1014.26
2017-11-09T20:45:00.420Z,1014.22
2017-11-09T20:49:55.977Z,1014.36
2017-11-09T20:54:51.746Z,1014.39
2017-11-09T20:59:47.421Z,1014.38
2017-11-09T21:04:45.349Z,1014.37
2017-11-09T21:09:40.665Z,1014.12
2017-11-09T21:14:38.501Z,1014.15
2017-11-09T21:19:33.855Z,1014.18
2017-11-09T21:24:29.648Z,1014.12
2017-11-09T21:29:25.147Z,1014.02
2017-11-09T21:34:21.757Z,1014.07
2017-11-09T21:39:19.833Z,1014.09
2017-11-09T21:44:16.993Z,1013.87
2017-11-09T21:49:12.411Z,1013.92
2017-11-09T21:54:08.185Z,1013.95
2017-11-09T21:59:04.676Z,1014.04
2017-11-09T22:04:01.027Z,1014.08
2017-11-09T22:08:57.200Z,1014.06
2017-11-09T22:13:52.619Z,1013.89
2017-11-09T22:18:48.408Z,1013.86
2017-11-09T22:23:44.224Z,1013.66
2017-11-09T22:28:40.005Z,1013.66
2017-11-09T22:33:36.407Z,1013.68
2017-11-09T22:38:32.013Z,1013.73
2017-11-09T22:43:29.710Z,1013.79
2017-11-09T22:48:25.829Z,1013.80
2017-11-09T22:53:22.479Z,1013.89
2017-11-09T22:58:17.889Z,1013.96
2017-11-09T23:03:13.571Z,1013.98
2017-11-09T23:08:10.271Z,1014.00
2017-11-09T23:13:05.975Z,1013.93
2017-11-09T23:18:02.707Z,1013.60
2017-11-09T23:22:58.312Z,1013.65
2017-11-09T23:27:54.259Z,1013.63
2017-11-09T23:32:51.045Z,1013.40
2017-11-09T23:37:46.301Z,1013.38
2017-11-09T23:42:42.118Z,1013.42
2017-11-09T23:47:38.019Z,1013.07
2017-11-09T23:52:33.867Z,1013.14
2017-11-09T23:57:30.976Z,1012.95
